CheckWX is a tool to help pilots better visualize weather data.  It is not intended as a substitute for an official pre-flight weather briefing.

20:34:07 UTC

ESND METAR
Sveg Airport
Sweden
Current

14 mins ago

ESND 182020Z AUTO 25005KT 210V280 9999 NCD 03/M00 Q0999
Observed
Feb-18 @ 20:20 UTC
Wind
  • 250° at 5 KTS
Visibility
10,000+ meters
Flight Rules
VFR
Cloud Levels
  • Clear skies
Temperature
C / 37°F
Dewpoint
C / 32°F
Humidity
81%
Altimeter
29.5" Hg
Pressure
998.92 hPa
Previous

44 mins ago

ESND 181950Z AUTO 24005KT 160V300 9999 NCD 03/00 Q1000
Observed
Feb-18 @ 19:50 UTC
Wind
  • 240° at 5 KTS
Visibility
10,000+ meters
Flight Rules
VFR
Cloud Levels
  • Clear skies
Temperature
C / 37°F
Dewpoint
C / 32°F
Humidity
81%
Altimeter
29.53" Hg
Pressure
999.92 hPa
Previous

1 hour ago

ESND 181920Z AUTO 23010KT 200V260 9999 FEW022/// SCT029/// 03/00 Q0999
Observed
Feb-18 @ 19:20 UTC
Wind
  • 230° at 10 KTS
Visibility
10,000+ meters
Flight Rules
VFR
Cloud Levels
  • Few at 2,200' AGL
  • Scattered at 2,900' AGL
Temperature
C / 37°F
Dewpoint
C / 32°F
Humidity
81%
Altimeter
29.5" Hg
Pressure
998.92 hPa